sensor_id;sensor_type;location;lat;lon;timestamp;pressure;altitude;pressure_sealevel;temperature;humidity
44481;BME280;30184;42.018;23.670;2023-07-31T00:02:01;91142.00;;;18.00;68.25
44481;BME280;30184;42.018;23.670;2023-07-31T00:04:30;91163.09;;;18.14;68.22
44481;BME280;30184;42.018;23.670;2023-07-31T00:06:59;91163.63;;;18.18;67.95
44481;BME280;30184;42.018;23.670;2023-07-31T00:09:28;91160.13;;;18.18;67.73
44481;BME280;30184;42.018;23.670;2023-07-31T00:11:58;91162.38;;;18.19;67.75
44481;BME280;30184;42.018;23.670;2023-07-31T00:14:28;91138.78;;;18.02;67.40
44481;BME280;30184;42.018;23.670;2023-07-31T00:16:58;91161.94;;;18.26;67.14
44481;BME280;30184;42.018;23.670;2023-07-31T00:19:27;91153.69;;;18.26;67.12
44481;BME280;30184;42.018;23.670;2023-07-31T00:21:57;91160.22;;;18.29;67.64
44481;BME280;30184;42.018;23.670;2023-07-31T00:24:26;91151.09;;;18.12;67.34
44481;BME280;30184;42.018;23.670;2023-07-31T00:26:56;91159.63;;;18.19;67.41
44481;BME280;30184;42.018;23.670;2023-07-31T00:29:28;91173.03;;;18.38;67.49
44481;BME280;30184;42.018;23.670;2023-07-31T00:31:57;91171.09;;;18.44;67.67
44481;BME280;30184;42.018;23.670;2023-07-31T00:34:26;91182.09;;;18.49;67.17
44481;BME280;30184;42.018;23.670;2023-07-31T00:36:56;91182.91;;;18.55;67.98
44481;BME280;30184;42.018;23.670;2023-07-31T00:39:25;91206.19;;;18.60;68.24
44481;BME280;30184;42.018;23.670;2023-07-31T00:41:55;91203.44;;;18.60;68.94
44481;BME280;30184;42.018;23.670;2023-07-31T00:44:24;91214.63;;;18.56;70.16
44481;BME280;30184;42.018;23.670;2023-07-31T00:46:55;91230.81;;;18.49;73.72
44481;BME280;30184;42.018;23.670;2023-07-31T00:49:26;91229.75;;;18.41;77.83
44481;BME280;30184;42.018;23.670;2023-07-31T00:51:56;91232.44;;;18.35;79.06
44481;BME280;30184;42.018;23.670;2023-07-31T00:54:26;91168.88;;;17.90;81.76
44481;BME280;30184;42.018;23.670;2023-07-31T00:56:55;91181.16;;;17.95;84.10
44481;BME280;30184;42.018;23.670;2023-07-31T00:59:25;91223.03;;;18.16;84.79
44481;BME280;30184;42.018;23.670;2023-07-31T01:01:56;91206.88;;;17.98;85.09
44481;BME280;30184;42.018;23.670;2023-07-31T01:04:26;91200.53;;;17.86;87.47
44481;BME280;30184;42.018;23.670;2023-07-31T01:06:59;91149.81;;;17.35;87.94
44481;BME280;30184;42.018;23.670;2023-07-31T01:09:37;91154.22;;;17.27;87.52
44481;BME280;30184;42.018;23.670;2023-07-31T01:12:14;91167.50;;;16.94;91.34
44481;BME280;30184;42.018;23.670;2023-07-31T01:15:03;91183.09;;;16.67;95.05
44481;BME280;30184;42.018;23.670;2023-07-31T01:17:34;91210.28;;;16.56;97.63
44481;BME280;30184;42.018;23.670;2023-07-31T01:20:05;91200.41;;;16.44;99.69
44481;BME280;30184;42.018;23.670;2023-07-31T01:22:54;91204.28;;;16.37;100.00
44481;BME280;30184;42.018;23.670;2023-07-31T01:25:49;91201.94;;;16.30;100.00
44481;BME280;30184;42.018;23.670;2023-07-31T01:28:22;91167.00;;;16.25;100.00
44481;BME280;30184;42.018;23.670;2023-07-31T01:30:55;91129.34;;;16.05;100.00
44481;BME280;30184;42.018;23.670;2023-07-31T01:33:28;91190.25;;;16.50;100.00
44481;BME280;30184;42.018;23.670;2023-07-31T01:35:57;91190.09;;;16.54;100.00
44481;BME280;30184;42.018;23.670;2023-07-31T01:38:27;91191.41;;;16.58;100.00
44481;BME280;30184;42.018;23.670;2023-07-31T01:40:58;91196.69;;;16.62;100.00
44481;BME280;30184;42.018;23.670;2023-07-31T01:43:27;91206.25;;;16.66;100.00
44481;BME280;30184;42.018;23.670;2023-07-31T01:45:57;91204.34;;;16.72;100.00
44481;BME280;30184;42.018;23.670;2023-07-31T01:48:26;91234.06;;;16.79;100.00
44481;BME280;30184;42.018;23.670;2023-07-31T01:50:55;91206.28;;;16.87;100.00
44481;BME280;30184;42.018;23.670;2023-07-31T01:53:25;91206.53;;;16.89;100.00
44481;BME280;30184;42.018;23.670;2023-07-31T01:55:54;91212.31;;;16.91;100.00
44481;BME280;30184;42.018;23.670;2023-07-31T01:58:24;91217.13;;;16.96;100.00
44481;BME280;30184;42.018;23.670;2023-07-31T02:00:54;91214.09;;;16.94;100.00
44481;BME280;30184;42.018;23.670;2023-07-31T02:03:23;91222.41;;;16.99;100.00
44481;BME280;30184;42.018;23.670;2023-07-31T02:05:54;91221.44;;;17.02;100.00
44481;BME280;30184;42.018;23.670;2023-07-31T02:08:25;91213.69;;;17.01;100.00
44481;BME280;30184;42.018;23.670;2023-07-31T02:10:55;91170.81;;;16.63;100.00
44481;BME280;30184;42.018;23.670;2023-07-31T02:13:25;91232.94;;;17.06;100.00
44481;BME280;30184;42.018;23.670;2023-07-31T02:15:54;91193.88;;;16.91;100.00
44481;BME280;30184;42.018;23.670;2023-07-31T02:18:25;91219.53;;;17.08;100.00
44481;BME280;30184;42.018;23.670;2023-07-31T02:20:54;91218.78;;;17.08;100.00
44481;BME280;30184;42.018;23.670;2023-07-31T02:23:24;91223.50;;;17.07;100.00
44481;BME280;30184;42.018;23.670;2023-07-31T02:25:53;91232.94;;;17.06;100.00
44481;BME280;30184;42.018;23.670;2023-07-31T02:28:22;91224.25;;;17.08;100.00
44481;BME280;30184;42.018;23.670;2023-07-31T02:30:53;91225.22;;;17.05;100.00
44481;BME280;30184;42.018;23.670;2023-07-31T02:33:22;91217.47;;;17.03;100.00
44481;BME280;30184;42.018;23.670;2023-07-31T02:35:51;91211.53;;;17.05;100.00
44481;BME280;30184;42.018;23.670;2023-07-31T02:38:22;91219.75;;;17.05;100.00
44481;BME280;30184;42.018;23.670;2023-07-31T02:40:51;91215.75;;;17.06;100.00
44481;BME280;30184;42.018;23.670;2023-07-31T02:43:20;91196.84;;;17.08;100.00
44481;BME280;30184;42.018;23.670;2023-07-31T02:45:52;91198.34;;;17.09;100.00
44481;BME280;30184;42.018;23.670;2023-07-31T02:48:24;91194.38;;;17.10;100.00
44481;BME280;30184;42.018;23.670;2023-07-31T02:50:53;91209.59;;;17.11;100.00
44481;BME280;30184;42.018;23.670;2023-07-31T02:53:22;91196.94;;;17.13;100.00
44481;BME280;30184;42.018;23.670;2023-07-31T02:55:51;91197.41;;;17.12;100.00
44481;BME280;30184;42.018;23.670;2023-07-31T02:58:21;91194.38;;;17.10;100.00
44481;BME280;30184;42.018;23.670;2023-07-31T03:00:50;91192.41;;;17.10;100.00
44481;BME280;30184;42.018;23.670;2023-07-31T03:03:21;91180.09;;;17.06;100.00
44481;BME280;30184;42.018;23.670;2023-07-31T03:05:50;91135.56;;;16.70;100.00
44481;BME280;30184;42.018;23.670;2023-07-31T03:08:20;91187.09;;;17.07;100.00
44481;BME280;30184;42.018;23.670;2023-07-31T03:10:49;91187.56;;;17.05;100.00
44481;BME280;30184;42.018;23.670;2023-07-31T03:13:19;91197.25;;;17.01;100.00
44481;BME280;30184;42.018;23.670;2023-07-31T03:15:48;91195.47;;;16.98;100.00
44481;BME280;30184;42.018;23.670;2023-07-31T03:18:17;91199.72;;;16.99;100.00
44481;BME280;30184;42.018;23.670;2023-07-31T03:20:48;91209.44;;;17.00;100.00
44481;BME280;30184;42.018;23.670;2023-07-31T03:23:17;91210.47;;;17.02;100.00
44481;BME280;30184;42.018;23.670;2023-07-31T03:25:56;91210.41;;;16.97;100.00
44481;BME280;30184;42.018;23.670;2023-07-31T03:28:29;91211.25;;;17.03;100.00
44481;BME280;30184;42.018;23.670;2023-07-31T03:30:58;91213.50;;;17.04;100.00
44481;BME280;30184;42.018;23.670;2023-07-31T03:33:30;91147.47;;;16.53;100.00
44481;BME280;30184;42.018;23.670;2023-07-31T03:36:00;91213.97;;;17.03;100.00
44481;BME280;30184;42.018;23.670;2023-07-31T03:38:30;91208.97;;;17.01;100.00
44481;BME280;30184;42.018;23.670;2023-07-31T03:40:59;91211.44;;;16.99;100.00
44481;BME280;30184;42.018;23.670;2023-07-31T03:43:29;91216.16;;;16.99;100.00
44481;BME280;30184;42.018;23.670;2023-07-31T03:45:59;91188.06;;;16.84;100.00
44481;BME280;30184;42.018;23.670;2023-07-31T03:48:29;91219.59;;;16.94;100.00
44481;BME280;30184;42.018;23.670;2023-07-31T03:51:00;91216.28;;;16.90;100.00
44481;BME280;30184;42.018;23.670;2023-07-31T03:53:29;91215.06;;;16.91;100.00
44481;BME280;30184;42.018;23.670;2023-07-31T03:55:58;91216.84;;;16.94;100.00
44481;BME280;30184;42.018;23.670;2023-07-31T03:58:27;91185.84;;;16.67;100.00
44481;BME280;30184;42.018;23.670;2023-07-31T04:00:57;91206.53;;;16.89;100.00
44481;BME280;30184;42.018;23.670;2023-07-31T04:03:26;91200.81;;;16.87;100.00
44481;BME280;30184;42.018;23.670;2023-07-31T04:05:56;91124.31;;;16.33;100.00
44481;BME280;30184;42.018;23.670;2023-07-31T04:08:27;91205.03;;;16.88;100.00
44481;BME280;30184;42.018;23.670;2023-07-31T04:10:56;91192.81;;;16.68;100.00
44481;BME280;30184;42.018;23.670;2023-07-31T04:13:25;91187.31;;;16.68;100.00
44481;BME280;30184;42.018;23.670;2023-07-31T04:15:56;91227.41;;;17.01;100.00
44481;BME280;30184;42.018;23.670;2023-07-31T04:18:25;91168.63;;;16.52;100.00
44481;BME280;30184;42.018;23.670;2023-07-31T04:20:55;91190.47;;;16.61;100.00
44481;BME280;30184;42.018;23.670;2023-07-31T04:23:24;91231.25;;;17.09;100.00
44481;BME280;30184;42.018;23.670;2023-07-31T04:25:55;91237.56;;;17.15;100.00
44481;BME280;30184;42.018;23.670;2023-07-31T04:28:24;91230.31;;;17.12;100.00
44481;BME280;30184;42.018;23.670;2023-07-31T04:30:54;91177.22;;;16.74;100.00
44481;BME280;30184;42.018;23.670;2023-07-31T04:33:23;91189.03;;;17.01;100.00
44481;BME280;30184;42.018;23.670;2023-07-31T04:35:52;91234.97;;;17.26;100.00
44481;BME280;30184;42.018;23.670;2023-07-31T04:38:22;91210.88;;;17.15;100.00
44481;BME280;30184;42.018;23.670;2023-07-31T04:40:51;91229.81;;;17.34;100.00
44481;BME280;30184;42.018;23.670;2023-07-31T04:43:21;91212.97;;;17.41;99.69
44481;BME280;30184;42.018;23.670;2023-07-31T04:45:51;91233.34;;;17.75;98.55
44481;BME280;30184;42.018;23.670;2023-07-31T04:48:21;91224.03;;;17.93;97.13
44481;BME280;30184;42.018;23.670;2023-07-31T04:50:51;91228.03;;;18.17;95.85
44481;BME280;30184;42.018;23.670;2023-07-31T04:53:20;91219.81;;;18.49;93.96
44481;BME280;30184;42.018;23.670;2023-07-31T04:55:49;91220.91;;;18.88;93.06
44481;BME280;30184;42.018;23.670;2023-07-31T04:58:18;91220.94;;;19.36;91.69
44481;BME280;30184;42.018;23.670;2023-07-31T05:00:49;91223.41;;;19.88;87.64
44481;BME280;30184;42.018;23.670;2023-07-31T05:03:19;91228.06;;;20.36;84.42
44481;BME280;30184;42.018;23.670;2023-07-31T05:05:49;91223.81;;;20.74;80.03
44481;BME280;30184;42.018;23.670;2023-07-31T05:08:19;91226.56;;;21.02;80.46
44481;BME280;30184;42.018;23.670;2023-07-31T05:10:48;91178.94;;;20.90;79.30
44481;BME280;30184;42.018;23.670;2023-07-31T05:13:17;91222.50;;;21.36;78.11
44481;BME280;30184;42.018;23.670;2023-07-31T05:15:46;91227.78;;;21.40;77.31
44481;BME280;30184;42.018;23.670;2023-07-31T05:18:18;91210.44;;;21.45;77.56
44481;BME280;30184;42.018;23.670;2023-07-31T05:20:47;91229.50;;;21.48;76.49
44481;BME280;30184;42.018;23.670;2023-07-31T05:23:17;91216.72;;;21.45;77.14
44481;BME280;30184;42.018;23.670;2023-07-31T05:25:46;91224.78;;;21.38;77.32
44481;BME280;30184;42.018;23.670;2023-07-31T05:28:15;91233.06;;;21.27;78.13
44481;BME280;30184;42.018;23.670;2023-07-31T05:30:45;91223.25;;;21.37;78.64
44481;BME280;30184;42.018;23.670;2023-07-31T05:33:14;91228.53;;;21.35;78.74
44481;BME280;30184;42.018;23.670;2023-07-31T05:35:45;91227.28;;;21.25;79.46
44481;BME280;30184;42.018;23.670;2023-07-31T05:38:14;91218.53;;;21.20;78.31
44481;BME280;30184;42.018;23.670;2023-07-31T05:40:43;91218.53;;;21.20;79.36
44481;BME280;30184;42.018;23.670;2023-07-31T05:43:12;91255.38;;;21.23;80.96
44481;BME280;30184;42.018;23.670;2023-07-31T05:45:42;91134.84;;;20.62;80.13
44481;BME280;30184;42.018;23.670;2023-07-31T05:48:11;91225.78;;;21.23;80.48
44481;BME280;30184;42.018;23.670;2023-07-31T05:50:41;91211.25;;;21.17;80.31
44481;BME280;30184;42.018;23.670;2023-07-31T05:53:11;91204.22;;;21.16;79.46
44481;BME280;30184;42.018;23.670;2023-07-31T05:55:41;91216.25;;;21.08;78.86
44481;BME280;30184;42.018;23.670;2023-07-31T05:58:10;91214.00;;;21.12;81.06
44481;BME280;30184;42.018;23.670;2023-07-31T06:00:39;91205.47;;;21.04;80.24
44481;BME280;30184;42.018;23.670;2023-07-31T06:03:08;91195.72;;;21.03;79.72
44481;BME280;30184;42.018;23.670;2023-07-31T06:05:38;91210.22;;;21.15;79.36
44481;BME280;30184;42.018;23.670;2023-07-31T06:08:07;91200.19;;;21.23;78.47
44481;BME280;30184;42.018;23.670;2023-07-31T06:10:38;91197.94;;;21.27;78.40
44481;BME280;30184;42.018;23.670;2023-07-31T06:13:07;91197.16;;;21.38;78.98
44481;BME280;30184;42.018;23.670;2023-07-31T06:15:36;91192.88;;;21.42;77.73
44481;BME280;30184;42.018;23.670;2023-07-31T06:18:06;91188.84;;;21.43;79.09
44481;BME280;30184;42.018;23.670;2023-07-31T06:20:35;91182.31;;;21.52;78.77
44481;BME280;30184;42.018;23.670;2023-07-31T06:23:08;91181.25;;;21.60;78.07
44481;BME280;30184;42.018;23.670;2023-07-31T06:25:39;91190.97;;;21.78;76.44
44481;BME280;30184;42.018;23.670;2023-07-31T06:28:08;91194.75;;;21.81;74.81
44481;BME280;30184;42.018;23.670;2023-07-31T06:30:37;91192.94;;;21.89;75.73
44481;BME280;30184;42.018;23.670;2023-07-31T06:33:06;91128.00;;;21.02;76.47
44481;BME280;30184;42.018;23.670;2023-07-31T06:35:36;91189.84;;;22.09;75.43
44481;BME280;30184;42.018;23.670;2023-07-31T06:38:06;91184.84;;;22.08;76.47
44481;BME280;30184;42.018;23.670;2023-07-31T06:40:35;91186.13;;;22.01;73.93
44481;BME280;30184;42.018;23.670;2023-07-31T06:43:06;91189.84;;;22.15;75.82
44481;BME280;30184;42.018;23.670;2023-07-31T06:45:37;91190.47;;;22.32;75.30
44481;BME280;30184;42.018;23.670;2023-07-31T06:48:06;91189.13;;;22.44;75.29
44481;BME280;30184;42.018;23.670;2023-07-31T06:50:35;91186.78;;;22.54;73.67
44481;BME280;30184;42.018;23.670;2023-07-31T06:53:04;91177.91;;;22.66;73.54
44481;BME280;30184;42.018;23.670;2023-07-31T06:55:34;91163.78;;;22.76;73.45
44481;BME280;30184;42.018;23.670;2023-07-31T06:58:05;91164.72;;;22.84;73.32
44481;BME280;30184;42.018;23.670;2023-07-31T07:00:34;91166.47;;;22.81;71.95
44481;BME280;30184;42.018;23.670;2023-07-31T07:03:03;91169.84;;;22.98;72.90
44481;BME280;30184;42.018;23.670;2023-07-31T07:05:32;91180.59;;;23.08;71.50
44481;BME280;30184;42.018;23.670;2023-07-31T07:08:02;91154.06;;;23.18;70.53
44481;BME280;30184;42.018;23.670;2023-07-31T07:10:31;91165.50;;;23.33;71.14
44481;BME280;30184;42.018;23.670;2023-07-31T07:13:00;91156.84;;;23.42;69.77
44481;BME280;30184;42.018;23.670;2023-07-31T07:15:32;91153.22;;;23.53;69.61
44481;BME280;30184;42.018;23.670;2023-07-31T07:18:01;91171.88;;;23.52;68.80
44481;BME280;30184;42.018;23.670;2023-07-31T07:20:31;91157.53;;;23.72;68.65
44481;BME280;30184;42.018;23.670;2023-07-31T07:23:00;91154.44;;;23.76;66.32
44481;BME280;30184;42.018;23.670;2023-07-31T07:25:29;91149.13;;;23.78;65.76
44481;BME280;30184;42.018;23.670;2023-07-31T07:27:59;91159.63;;;23.85;67.73
44481;BME280;30184;42.018;23.670;2023-07-31T07:30:30;91090.31;;;23.48;64.61
44481;BME280;30184;42.018;23.670;2023-07-31T07:32:59;91153.94;;;23.96;67.35
44481;BME280;30184;42.018;23.670;2023-07-31T07:35:29;91147.72;;;24.09;67.17
44481;BME280;30184;42.018;23.670;2023-07-31T07:37:58;91150.13;;;24.18;64.49
44481;BME280;30184;42.018;23.670;2023-07-31T07:40:28;91150.50;;;24.28;65.52
44481;BME280;30184;42.018;23.670;2023-07-31T07:42:57;91104.13;;;24.09;64.05
44481;BME280;30184;42.018;23.670;2023-07-31T07:45:27;91155.72;;;24.50;63.17
44481;BME280;30184;42.018;23.670;2023-07-31T07:47:58;91155.94;;;24.52;61.46
44481;BME280;30184;42.018;23.670;2023-07-31T07:50:28;91113.53;;;24.19;62.44
44481;BME280;30184;42.018;23.670;2023-07-31T07:52:57;91159.19;;;24.69;61.80
44481;BME280;30184;42.018;23.670;2023-07-31T07:55:26;91190.31;;;24.81;63.07
44481;BME280;30184;42.018;23.670;2023-07-31T07:57:55;91162.53;;;24.49;60.61
44481;BME280;30184;42.018;23.670;2023-07-31T08:00:25;91165.66;;;24.90;62.53
44481;BME280;30184;42.018;23.670;2023-07-31T08:02:54;91178.56;;;24.88;60.52
44481;BME280;30184;42.018;23.670;2023-07-31T08:05:26;91156.75;;;24.98;59.22
44481;BME280;30184;42.018;23.670;2023-07-31T08:07:57;91151.19;;;24.98;59.36
44481;BME280;30184;42.018;23.670;2023-07-31T08:10:26;91147.78;;;25.05;60.36
44481;BME280;30184;42.018;23.670;2023-07-31T08:12:55;91134.75;;;25.13;57.70
44481;BME280;30184;42.018;23.670;2023-07-31T08:15:24;91139.28;;;25.29;55.69
44481;BME280;30184;42.018;23.670;2023-07-31T08:17:54;91145.25;;;25.33;56.59
44481;BME280;30184;42.018;23.670;2023-07-31T08:20:25;91146.22;;;25.49;56.55
44481;BME280;30184;42.018;23.670;2023-07-31T08:22:55;91147.22;;;25.64;55.54
44481;BME280;30184;42.018;23.670;2023-07-31T08:25:24;91142.91;;;25.77;54.81
44481;BME280;30184;42.018;23.670;2023-07-31T08:27:54;91136.59;;;26.02;53.61
44481;BME280;30184;42.018;23.670;2023-07-31T08:30:23;91131.13;;;26.10;52.97
44481;BME280;30184;42.018;23.670;2023-07-31T08:32:52;91108.88;;;26.10;54.65
44481;BME280;30184;42.018;23.670;2023-07-31T08:35:22;91138.44;;;26.34;53.18
44481;BME280;30184;42.018;23.670;2023-07-31T08:37:53;91125.72;;;26.25;52.04
44481;BME280;30184;42.018;23.670;2023-07-31T08:40:22;91124.97;;;26.25;51.78
44481;BME280;30184;42.018;23.670;2023-07-31T08:42:54;91128.84;;;26.22;53.78
44481;BME280;30184;42.018;23.670;2023-07-31T08:45:24;91093.59;;;26.04;51.02
44481;BME280;30184;42.018;23.670;2023-07-31T08:47:54;91126.81;;;26.22;51.52
44481;BME280;30184;42.018;23.670;2023-07-31T08:50:24;91133.84;;;26.23;53.78
44481;BME280;30184;42.018;23.670;2023-07-31T08:52:55;91140.41;;;26.13;51.22
44481;BME280;30184;42.018;23.670;2023-07-31T08:55:26;91123.19;;;26.27;51.87
44481;BME280;30184;42.018;23.670;2023-07-31T08:57:56;91003.59;;;25.46;52.66
44481;BME280;30184;42.018;23.670;2023-07-31T09:00:26;91073.44;;;25.77;50.67
44481;BME280;30184;42.018;23.670;2023-07-31T09:02:58;91128.41;;;26.18;52.96
44481;BME280;30184;42.018;23.670;2023-07-31T09:05:30;91127.38;;;26.08;52.28
44481;BME280;30184;42.018;23.670;2023-07-31T09:08:02;91146.88;;;25.94;52.90
44481;BME280;30184;42.018;23.670;2023-07-31T09:10:33;91120.53;;;25.95;53.81
44481;BME280;30184;42.018;23.670;2023-07-31T09:13:02;91117.66;;;26.01;52.02
44481;BME280;30184;42.018;23.670;2023-07-31T09:15:32;91113.22;;;25.85;51.68
44481;BME280;30184;42.018;23.670;2023-07-31T09:18:06;91079.59;;;25.96;52.28
44481;BME280;30184;42.018;23.670;2023-07-31T09:20:36;90965.75;;;25.09;54.19
44481;BME280;30184;42.018;23.670;2023-07-31T09:23:08;91066.31;;;25.42;52.45
44481;BME280;30184;42.018;23.670;2023-07-31T09:25:38;91106.78;;;25.90;52.29
44481;BME280;30184;42.018;23.670;2023-07-31T09:28:10;91117.44;;;26.12;52.95
44481;BME280;30184;42.018;23.670;2023-07-31T09:30:48;91110.16;;;26.09;52.23
44481;BME280;30184;42.018;23.670;2023-07-31T09:33:19;91108.94;;;26.18;52.85
44481;BME280;30184;42.018;23.670;2023-07-31T09:35:48;91107.97;;;26.28;51.38
44481;BME280;30184;42.018;23.670;2023-07-31T09:38:19;91101.97;;;26.24;50.96
44481;BME280;30184;42.018;23.670;2023-07-31T09:40:48;91099.00;;;26.22;49.58
44481;BME280;30184;42.018;23.670;2023-07-31T09:43:19;91101.66;;;26.28;50.38
44481;BME280;30184;42.018;23.670;2023-07-31T09:45:54;91092.72;;;26.43;50.60
44481;BME280;30184;42.018;23.670;2023-07-31T09:48:24;91102.63;;;26.51;50.16
44481;BME280;30184;42.018;23.670;2023-07-31T09:50:55;91104.22;;;26.60;50.09
44481;BME280;30184;42.018;23.670;2023-07-31T09:53:29;91088.59;;;26.98;50.71
44481;BME280;30184;42.018;23.670;2023-07-31T09:55:59;91097.97;;;27.08;48.47
44481;BME280;30184;42.018;23.670;2023-07-31T09:58:29;91092.84;;;27.20;48.00
44481;BME280;30184;42.018;23.670;2023-07-31T10:01:01;91099.25;;;27.36;48.00
44481;BME280;30184;42.018;23.670;2023-07-31T10:03:31;91030.19;;;26.85;47.45
44481;BME280;30184;42.018;23.670;2023-07-31T10:06:02;91082.72;;;27.30;48.03
44481;BME280;30184;42.018;23.670;2023-07-31T10:08:35;91069.22;;;27.14;48.63
44481;BME280;30184;42.018;23.670;2023-07-31T10:11:05;91015.06;;;26.73;48.26
44481;BME280;30184;42.018;23.670;2023-07-31T10:13:36;91092.03;;;27.33;47.32
44481;BME280;30184;42.018;23.670;2023-07-31T10:16:06;91087.69;;;27.24;46.73
44481;BME280;30184;42.018;23.670;2023-07-31T10:18:36;91089.06;;;27.10;48.00
44481;BME280;30184;42.018;23.670;2023-07-31T10:21:06;91085.75;;;27.11;47.04
44481;BME280;30184;42.018;23.670;2023-07-31T10:23:37;91024.81;;;26.59;47.42
44481;BME280;30184;42.018;23.670;2023-07-31T10:26:08;91095.09;;;26.80;46.20
44481;BME280;30184;42.018;23.670;2023-07-31T10:28:38;91075.06;;;26.82;46.57
44481;BME280;30184;42.018;23.670;2023-07-31T10:31:08;91084.69;;;26.94;47.18
44481;BME280;30184;42.018;23.670;2023-07-31T10:33:38;91083.50;;;27.10;47.04
44481;BME280;30184;42.018;23.670;2023-07-31T10:36:14;91081.88;;;27.15;46.65
44481;BME280;30184;42.018;23.670;2023-07-31T10:38:48;91078.75;;;27.26;46.11
44481;BME280;30184;42.018;23.670;2023-07-31T10:41:18;91077.53;;;27.34;45.26
44481;BME280;30184;42.018;23.670;2023-07-31T10:43:47;91071.78;;;27.32;45.14
44481;BME280;30184;42.018;23.670;2023-07-31T10:46:17;91065.94;;;27.51;45.61
44481;BME280;30184;42.018;23.670;2023-07-31T10:48:57;91079.75;;;27.64;45.52
44481;BME280;30184;42.018;23.670;2023-07-31T10:51:33;91032.09;;;27.47;45.19
44481;BME280;30184;42.018;23.670;2023-07-31T10:54:15;91063.41;;;28.04;45.07
44481;BME280;30184;42.018;23.670;2023-07-31T10:56:46;91032.50;;;28.02;44.49
44481;BME280;30184;42.018;23.670;2023-07-31T10:59:15;91052.31;;;28.19;43.86
44481;BME280;30184;42.018;23.670;2023-07-31T11:01:52;91050.13;;;28.48;43.27
44481;BME280;30184;42.018;23.670;2023-07-31T11:04:22;91046.94;;;28.29;42.09
44481;BME280;30184;42.018;23.670;2023-07-31T11:06:56;91045.47;;;28.36;41.65
44481;BME280;30184;42.018;23.670;2023-07-31T11:09:29;91051.00;;;28.28;42.24
44481;BME280;30184;42.018;23.670;2023-07-31T11:11:59;91018.53;;;27.87;42.59
44481;BME280;30184;42.018;23.670;2023-07-31T11:14:29;91060.00;;;27.91;42.99
44481;BME280;30184;42.018;23.670;2023-07-31T11:16:58;91041.50;;;27.72;43.36
44481;BME280;30184;42.018;23.670;2023-07-31T11:19:27;91046.00;;;27.75;43.35
44481;BME280;30184;42.018;23.670;2023-07-31T11:21:58;91040.97;;;27.74;42.83
44481;BME280;30184;42.018;23.670;2023-07-31T11:24:29;91046.00;;;27.75;42.83
44481;BME280;30184;42.018;23.670;2023-07-31T11:26:58;91047.66;;;27.71;42.76
44481;BME280;30184;42.018;23.670;2023-07-31T11:29:28;91056.34;;;27.60;43.29
44481;BME280;30184;42.018;23.670;2023-07-31T11:31:58;91056.59;;;27.41;42.84
44481;BME280;30184;42.018;23.670;2023-07-31T11:34:27;90984.38;;;26.86;43.53
44481;BME280;30184;42.018;23.670;2023-07-31T11:36:56;91059.13;;;27.31;46.06
44481;BME280;30184;42.018;23.670;2023-07-31T11:39:25;91050.03;;;27.31;44.92
44481;BME280;30184;42.018;23.670;2023-07-31T11:42:00;91042.03;;;27.35;44.56
44481;BME280;30184;42.018;23.670;2023-07-31T11:44:38;90936.84;;;26.56;45.30
44481;BME280;30184;42.018;23.670;2023-07-31T11:47:08;91044.31;;;27.44;43.64
44481;BME280;30184;42.018;23.670;2023-07-31T11:49:37;91035.69;;;27.55;41.76
44481;BME280;30184;42.018;23.670;2023-07-31T11:52:07;91043.03;;;27.45;42.49
44481;BME280;30184;42.018;23.670;2023-07-31T11:54:36;91026.78;;;27.28;43.25
44481;BME280;30184;42.018;23.670;2023-07-31T11:57:08;90840.88;;;25.92;42.27
44481;BME280;30184;42.018;23.670;2023-07-31T11:59:38;91048.31;;;27.28;41.60
44481;BME280;30184;42.018;23.670;2023-07-31T12:02:08;91058.69;;;27.20;41.86
44481;BME280;30184;42.018;23.670;2023-07-31T12:04:37;91056.47;;;27.26;41.92
44481;BME280;30184;42.018;23.670;2023-07-31T12:07:07;91045.75;;;27.30;44.53
44481;BME280;30184;42.018;23.670;2023-07-31T12:09:36;91034.59;;;27.30;43.35
44481;BME280;30184;42.018;23.670;2023-07-31T12:12:09;91018.63;;;27.30;42.59
44481;BME280;30184;42.018;23.670;2023-07-31T12:14:41;91030.13;;;27.27;42.15
44481;BME280;30184;42.018;23.670;2023-07-31T12:17:11;91027.16;;;27.25;41.99
44481;BME280;30184;42.018;23.670;2023-07-31T12:19:40;90981.22;;;26.90;41.54
44481;BME280;30184;42.018;23.670;2023-07-31T12:22:13;91033.53;;;27.40;41.60
44481;BME280;30184;42.018;23.670;2023-07-31T12:24:43;91046.88;;;27.34;43.17
44481;BME280;30184;42.018;23.670;2023-07-31T12:27:15;91042.41;;;27.31;43.07
44481;BME280;30184;42.018;23.670;2023-07-31T12:29:46;91056.72;;;27.07;46.16
44481;BME280;30184;42.018;23.670;2023-07-31T12:32:20;91043.56;;;27.07;45.20
44481;BME280;30184;42.018;23.670;2023-07-31T12:34:49;91047.28;;;27.10;47.20
44481;BME280;30184;42.018;23.670;2023-07-31T12:37:18;91056.56;;;27.05;49.79
44481;BME280;30184;42.018;23.670;2023-07-31T12:39:49;91057.34;;;27.13;48.03
44481;BME280;30184;42.018;23.670;2023-07-31T12:42:20;91055.31;;;27.14;48.40
44481;BME280;30184;42.018;23.670;2023-07-31T12:44:49;91054.91;;;27.09;47.52
44481;BME280;30184;42.018;23.670;2023-07-31T12:47:18;91065.25;;;27.01;46.77
44481;BME280;30184;42.018;23.670;2023-07-31T12:49:48;91064.53;;;26.88;46.81
44481;BME280;30184;42.018;23.670;2023-07-31T12:52:17;91048.22;;;26.63;49.23
44481;BME280;30184;42.018;23.670;2023-07-31T12:54:46;91068.72;;;26.73;52.02
44481;BME280;30184;42.018;23.670;2023-07-31T12:57:15;91073.03;;;26.61;53.90
44481;BME280;30184;42.018;23.670;2023-07-31T12:59:46;91074.81;;;26.51;50.92
44481;BME280;30184;42.018;23.670;2023-07-31T13:02:15;90979.97;;;25.87;51.64
44481;BME280;30184;42.018;23.670;2023-07-31T13:04:45;91062.47;;;26.39;48.56